createdAt,value
2022-11-25T00:02:12.921Z,5.90
2022-11-25T00:07:15.565Z,5.60
2022-11-25T00:12:18.159Z,5.47
2022-11-25T00:17:20.707Z,6.00
2022-11-25T00:22:23.213Z,5.53
2022-11-25T00:27:25.717Z,5.50
2022-11-25T00:32:28.258Z,5.60
2022-11-25T00:37:32.434Z,5.53
2022-11-25T00:42:53.783Z,4.90
2022-11-25T00:47:56.395Z,5.30
2022-11-25T00:52:59.395Z,5.17
2022-11-25T00:58:02.111Z,5.33
2022-11-25T01:03:05.199Z,5.07
2022-11-25T01:08:08.344Z,5.00
2022-11-25T01:13:13.830Z,4.63
2022-11-25T01:18:16.335Z,5.20
2022-11-25T01:23:18.890Z,4.90
2022-11-25T01:28:21.573Z,4.93
2022-11-25T01:33:25.493Z,5.47
2022-11-25T01:38:28.174Z,5.13
2022-11-25T01:43:31.387Z,6.50
2022-11-25T01:48:57.356Z,6.40
2022-11-25T01:54:03.138Z,6.00
2022-11-25T01:59:07.456Z,6.20
2022-11-25T02:04:15.673Z,6.53
2022-11-25T02:09:21.548Z,6.50
2022-11-25T02:14:26.408Z,6.73
2022-11-25T02:19:40.956Z,5.90
2022-11-25T02:24:46.491Z,7.00
2022-11-25T02:29:51.594Z,5.30
2022-11-25T02:34:55.103Z,6.27
2022-11-25T02:39:58.546Z,5.80
2022-11-25T02:45:01.480Z,5.70
2022-11-25T02:50:05.130Z,6.03
2022-11-25T02:55:08.143Z,5.90
2022-11-25T03:00:12.265Z,6.33
2022-11-25T03:05:16.288Z,6.27
2022-11-25T03:10:19.193Z,5.90
2022-11-25T03:15:22.646Z,7.03
2022-11-25T03:20:25.720Z,6.87
2022-11-25T03:25:28.333Z,6.77
2022-11-25T03:30:31.665Z,7.00
2022-11-25T03:35:37.044Z,7.07
2022-11-25T03:40:40.170Z,7.17
2022-11-25T03:45:43.014Z,6.90
2022-11-25T03:50:49.068Z,7.70
2022-11-25T03:55:51.646Z,7.23
2022-11-25T04:01:03.578Z,7.07
2022-11-25T04:06:07.723Z,6.07
2022-11-25T04:11:10.909Z,6.10
2022-11-25T04:16:26.195Z,6.23
2022-11-25T04:21:30.027Z,6.80
2022-11-25T04:26:32.965Z,6.60
2022-11-25T04:31:35.592Z,7.30
2022-11-25T04:36:38.133Z,6.50
2022-11-25T04:41:40.793Z,7.87
2022-11-25T04:46:44.347Z,8.30
2022-11-25T04:51:47.071Z,6.50
2022-11-25T04:56:50.839Z,7.30
2022-11-25T05:01:54.593Z,7.77
2022-11-25T05:07:09.061Z,7.80
2022-11-25T05:12:19.336Z,7.10
2022-11-25T05:17:30.106Z,6.90
2022-11-25T05:22:35.346Z,7.73
2022-11-25T05:27:39.714Z,7.13
2022-11-25T05:32:45.471Z,7.27
2022-11-25T05:37:48.708Z,8.10
2022-11-25T05:42:51.488Z,7.63
2022-11-25T05:47:55.718Z,8.80
2022-11-25T05:53:01.447Z,7.53
2022-11-25T05:58:06.303Z,9.47
2022-11-25T06:03:09.994Z,8.57
2022-11-25T06:08:14.024Z,8.97
2022-11-25T06:13:16.727Z,9.13
2022-11-25T06:18:20.794Z,10.43
2022-11-25T06:23:26.046Z,10.77
2022-11-25T06:28:28.718Z,10.43
2022-11-25T06:33:32.981Z,10.27
2022-11-25T06:38:38.255Z,9.67
2022-11-25T06:43:41.201Z,11.20
2022-11-25T06:48:43.770Z,10.10
2022-11-25T06:53:46.474Z,10.03
2022-11-25T06:58:50.430Z,9.77
2022-11-25T07:03:56.817Z,9.87
2022-11-25T07:08:59.745Z,10.77
2022-11-25T07:14:06.391Z,11.23
2022-11-25T07:19:11.486Z,10.93
2022-11-25T07:24:16.675Z,10.30
2022-11-25T07:29:51.582Z,9.87
2022-11-25T07:34:43.575Z,9.67
2022-11-25T07:39:46.138Z,9.70
2022-11-25T07:44:49.437Z,10.63
2022-11-25T07:50:21.625Z,9.47
2022-11-25T07:55:26.198Z,9.47
2022-11-25T08:00:28.851Z,10.13
2022-11-25T08:05:33.423Z,11.07
2022-11-25T08:10:41.152Z,10.13
2022-11-25T08:15:43.819Z,11.57
2022-11-25T08:20:46.456Z,10.77
2022-11-25T08:25:50.648Z,9.20
2022-11-25T08:31:01.903Z,11.53
2022-11-25T08:36:06.175Z,11.95
2022-11-25T08:41:16.487Z,10.90
2022-11-25T08:46:22.598Z,9.33
2022-11-25T08:51:30.345Z,9.20
2022-11-25T08:56:39.472Z,10.10
2022-11-25T09:01:42.121Z,10.90
2022-11-25T09:06:44.851Z,10.63
2022-11-25T09:11:47.491Z,11.97
2022-11-25T09:16:50.132Z,9.77
2022-11-25T09:21:52.793Z,10.13
2022-11-25T09:26:55.374Z,9.37
2022-11-25T09:31:58.929Z,8.80
2022-11-25T09:37:01.462Z,10.30
2022-11-25T09:42:22.598Z,8.93
2022-11-25T09:47:47.612Z,8.85
2022-11-25T09:53:05.907Z,10.20
2022-11-25T09:58:37.287Z,9.20
2022-11-25T10:03:52.772Z,10.52
2022-11-25T10:09:02.358Z,9.23
2022-11-25T10:14:17.615Z,10.23
2022-11-25T10:19:32.208Z,10.93
2022-11-25T10:24:39.878Z,9.73
2022-11-25T10:29:48.982Z,9.43
2022-11-25T10:35:00.976Z,8.93
2022-11-25T10:40:07.303Z,9.20
2022-11-25T10:45:16.510Z,9.60
2022-11-25T10:50:25.200Z,10.00
2022-11-25T10:56:01.805Z,9.00
2022-11-25T11:01:25.737Z,8.43
2022-11-25T11:06:32.124Z,9.23
2022-11-25T11:11:49.880Z,9.30
2022-11-25T11:18:09.067Z,9.33
2022-11-25T11:23:14.361Z,10.27
2022-11-25T11:28:46.308Z,9.23
2022-11-25T11:39:07.499Z,9.67
2022-11-25T11:44:32.255Z,10.67
2022-11-25T11:49:57.157Z,10.40
2022-11-25T11:56:11.868Z,9.93
2022-11-25T12:01:45.958Z,10.63
2022-11-25T12:07:03.404Z,9.67
2022-11-25T12:12:14.744Z,9.57
2022-11-25T12:17:42.487Z,9.10
2022-11-25T12:22:49.784Z,10.27
2022-11-25T12:28:03.816Z,10.07
2022-11-25T12:33:22.199Z,10.30
2022-11-25T12:39:02.037Z,9.93
2022-11-25T12:44:20.145Z,10.10
2022-11-25T12:49:28.075Z,10.00
2022-11-25T12:54:52.464Z,10.10
2022-11-25T13:05:54.031Z,10.47
2022-11-25T13:11:28.854Z,10.07
2022-11-25T13:16:32.622Z,10.40
2022-11-25T13:21:35.685Z,10.07
2022-11-25T13:26:49.548Z,9.63
2022-11-25T13:31:59.487Z,8.80
2022-11-25T13:37:23.460Z,8.87
2022-11-25T13:42:26.723Z,9.40
2022-11-25T13:47:32.008Z,9.30
2022-11-25T13:52:42.381Z,10.17
2022-11-25T13:58:10.521Z,9.20
2022-11-25T14:03:20.989Z,10.20
2022-11-25T14:08:34.266Z,10.07
2022-11-25T14:14:02.525Z,10.33
2022-11-25T14:25:23.917Z,9.70
2022-11-25T14:30:27.215Z,8.73
2022-11-25T14:35:38.953Z,8.13
2022-11-25T14:40:58.930Z,7.97
2022-11-25T14:46:21.494Z,7.33
2022-11-25T14:51:27.364Z,7.13
2022-11-25T14:56:33.912Z,6.53
2022-11-25T15:01:38.846Z,6.30
2022-11-25T15:06:48.479Z,7.40
2022-11-25T15:11:57.658Z,7.33
2022-11-25T15:17:01.391Z,7.93
2022-11-25T15:22:23.623Z,8.10
2022-11-25T15:27:29.014Z,8.80
2022-11-25T15:32:37.543Z,10.90
2022-11-25T15:37:40.084Z,9.63
2022-11-25T15:42:42.676Z,8.87
2022-11-25T15:47:45.590Z,9.73
2022-11-25T15:52:56.098Z,6.93
2022-11-25T15:58:20.275Z,8.90
2022-11-25T16:03:23.881Z,8.57
2022-11-25T16:08:32.635Z,8.83
2022-11-25T16:13:37.462Z,7.70
2022-11-25T16:18:58.018Z,8.00
2022-11-25T16:24:24.596Z,8.83
2022-11-25T16:29:31.917Z,9.20
2022-11-25T16:34:34.642Z,9.03
2022-11-25T16:39:38.854Z,8.80
2022-11-25T16:44:45.568Z,9.47
2022-11-25T16:49:48.428Z,10.20
2022-11-25T16:54:51.584Z,8.57
2022-11-25T16:59:58.927Z,10.47
2022-11-25T17:05:17.714Z,9.43
2022-11-25T17:10:21.341Z,10.17
2022-11-25T17:15:32.677Z,10.43
2022-11-25T17:20:35.411Z,9.05
2022-11-25T17:25:38.016Z,9.93
2022-11-25T17:30:40.823Z,9.70
2022-11-25T17:35:43.877Z,8.60
2022-11-25T17:40:47.563Z,8.17
2022-11-25T17:45:50.186Z,9.93
2022-11-25T17:50:52.773Z,10.40
2022-11-25T17:55:56.257Z,9.63
2022-11-25T18:00:58.922Z,9.37
2022-11-25T18:06:03.117Z,9.93
2022-11-25T18:11:07.152Z,8.77
2022-11-25T18:16:10.853Z,9.00
2022-11-25T18:21:13.444Z,8.50
2022-11-25T18:26:16.086Z,8.70
2022-11-25T18:31:18.859Z,7.27
2022-11-25T18:36:21.634Z,8.40
2022-11-25T18:41:24.315Z,8.43
2022-11-25T18:46:27.243Z,8.50
2022-11-25T18:51:29.915Z,9.30
2022-11-25T18:56:33.755Z,8.23
2022-11-25T19:01:36.339Z,9.73
2022-11-25T19:06:41.596Z,8.57
2022-11-25T19:11:50.190Z,8.13
2022-11-25T19:16:52.944Z,10.90
2022-11-25T19:21:55.607Z,8.50
2022-11-25T19:26:58.211Z,8.40
2022-11-25T19:32:02.655Z,10.10
2022-11-25T19:37:05.626Z,9.33
2022-11-25T19:42:09.911Z,8.60
2022-11-25T19:47:21.035Z,9.60
2022-11-25T19:52:30.745Z,9.00
2022-11-25T19:57:33.350Z,9.70
2022-11-25T20:02:36.495Z,8.90
2022-11-25T20:07:39.327Z,9.43
2022-11-25T20:12:42.519Z,9.27
2022-11-25T20:17:52.305Z,8.90
2022-11-25T20:23:17.804Z,9.80
2022-11-25T20:28:23.148Z,10.17
2022-11-25T20:33:28.779Z,10.90
2022-11-25T20:38:33.706Z,10.37
2022-11-25T20:43:43.387Z,10.13
2022-11-25T20:48:46.096Z,10.20
2022-11-25T20:53:57.283Z,10.80
2022-11-25T20:58:59.903Z,9.87
2022-11-25T21:04:02.576Z,11.07
2022-11-25T21:09:07.128Z,12.90
2022-11-25T21:14:15.681Z,11.63
2022-11-25T21:19:18.665Z,10.50
2022-11-25T21:24:34.253Z,10.60
2022-11-25T21:29:36.948Z,9.83
2022-11-25T21:34:40.041Z,10.30
2022-11-25T21:39:42.979Z,9.60
2022-11-25T21:44:46.478Z,11.83
2022-11-25T21:49:50.074Z,11.67
2022-11-25T21:54:52.876Z,11.37
2022-11-25T21:59:56.033Z,11.27
2022-11-25T22:04:59.043Z,10.43
2022-11-25T22:10:01.560Z,11.07
2022-11-25T22:15:12.960Z,12.57
2022-11-25T22:20:25.446Z,11.30
2022-11-25T22:25:31.414Z,11.53
2022-11-25T22:30:34.395Z,12.63
2022-11-25T22:35:36.931Z,12.17
2022-11-25T22:40:41.025Z,9.57
2022-11-25T22:45:44.382Z,11.77
2022-11-25T22:50:47.003Z,11.90
2022-11-25T22:55:50.498Z,11.40
2022-11-25T23:00:53.241Z,13.20
2022-11-25T23:05:57.113Z,11.47
2022-11-25T23:10:59.835Z,11.93
2022-11-25T23:16:04.758Z,12.17
2022-11-25T23:21:16.644Z,12.27
2022-11-25T23:26:19.180Z,9.87
2022-11-25T23:31:21.756Z,12.30
2022-11-25T23:36:45.619Z,12.50
2022-11-25T23:41:49.000Z,11.93
2022-11-25T23:46:53.987Z,10.37
2022-11-25T23:52:03.337Z,10.90
2022-11-25T23:57:17.193Z,9.27
